Terminal Aerodrome Forecast
Issued by NWS Medford, OR

Home | Current Version | Previous Version | Text Only | Print | Product List | Glossary On
Versions: 1 2 3 4 5 6 7 8 9 10 11 12 13 14 15 16 17 18 19 20 21 22 23
410
FTUS46 KMFR 210555 AAA
TAFMFR
TAF AMD
KMFR 210555Z 2106/2206 VRB05KT P6SM VCSH SCT040 OVC070
     FM210800 18006KT P6SM -SHRA BKN040 OVC070
     FM211400 18008KT 3SM -SHRA BR BKN025 OVC040
     FM211900 22010G18KT 3SM -SHRA BR BKN025 OVC040
     FM212100 23010G15KT P6SM OVC060
     FM220400 14012KT P6SM BKN100 OVC200 WS020/17045KT=

USA.gov is the U.S. government's official web portal to all federal, state and local government web resources and services.